Accueil
METAR-TAF:

METAR-TAF

Aéroports :

Aéroport international de Sanya Phénix

Sanya, Chine

latitude: 18-18N, longitude: 109-24E, altitude: 27 m

Observation

Le bulletin a été fait il y a 31 minutes, à 11:00 UTC
Vent 8 kt de sud-est, variant entre est/sud-est et sud
Température 27°C
Humidité 79%
Pression 1009 hPa
Visibilité 10 km ou plus
Quelques nuages à une hauteur de 2000 ft

METAR: ZJSY 281100Z 14004MPS 110V170 9999 FEW020 27/23 Q1009 NOSIG

Heure: 19:31 (11:31 UTC)

Prévision

Le bulletin a été fait il y a 8 heures et 30 minutes, à 03:01 UTC
Prévision valable du 28 à 06 UTC au 29 à 06 UTC
Vent 8 kt de est/sud-est
Visibilité 10 km ou plus
Quelques nuages à une hauteur de 2000 ft

TAF: ZJSY 280301Z 2806/2906 12004MPS 9999 FEW020 TX31/2806Z TN23/2821Z

Observations et prévisions météorologiques de plus de 4000 aéroports (messages METAR et TAF).

Les stations disponibles sont représentées par des disques jaunes et rouges sur la carte.

Passer la souris dessus pour voir le nom de la station.

Cliquer dessus pour voir les observations et prévisions météorologiques.

Pour changer de carte: cliquez sur les boutons verts avec une croix noire pour zoomer, sur le bouton vert avec un tiret pour effectuer un zoom arrière, ou sur les flèches vertes pour les cartes adjacentes.


METAR-TAF: